Estaciones Metar próximas

 

LELL - Sabadell, Spain
Distancia a la estación: E 18km
Actualizado: 26/09/2017 20:00
Muy nuboso
Muy nuboso
 Viento del SE
Viento: SE 11 km/h
Temperatura: 21°C
Rocío: 17°C
Humedad: 78%
Barómetro: 1021 hPa
Nubes: Muy nuboso
Visibilidad: 10 km
Detalle Nubes: Muy nuboso 1189 m
Muy nuboso 1372 m
2017/09/26 18:00 LELL 261800Z AUTO 14006KT 090V200 9999 BKN039/// BKN045/// 21/17 Q1021
LEBL - Barcelona Airpor, Spain
Distancia a la estación: SSE 33km
Actualizado: 26/09/2017 20:00
Parcialmente nuboso
Parcialmente nuboso
 Viento del S
Viento: S 7 km/h
Temperatura: 22°C
Rocío: 16°C
Humedad: 69%
Barómetro: 1020 hPa
Nubes: Parcialmente nuboso
Visibilidad: 10 km
Detalle Nubes: Nubes dispersas 762 m
Parcialmente nuboso 1219 m
2017/09/26 18:00 LEBL 261800Z 17004KT 140V200 9999 FEW025 SCT040 22/16 Q1020 NOSIG
LERS - Reus (civ/Mil), Spain
Distancia a la estación: SO 75km
Actualizado: 26/09/2017 20:00
Parcialmente nuboso
Parcialmente nuboso
 Viento del S
Viento: S 6 km/h
Temperatura: 21°C
Rocío: 17°C
Humedad: 78%
Barómetro: 1020 hPa
Nubes: Parcialmente nuboso
Visibilidad: 10 km
Detalle Nubes: Nubes dispersas 762 m
Parcialmente nuboso 914 m
2017/09/26 18:00 LERS 261800Z 18003KT 140V220 9999 FEW025 SCT030 21/17 Q1020
 
LEGE - Gerona/Costa Bra, Spain
Distancia a la estación: ENE 83km
Actualizado: 26/09/2017 20:00
Muy nuboso
Muy nuboso
 Viento del calm
Viento: Calma
Temperatura: 19°C
Rocío: 14°C
Humedad: 73%
Barómetro: 1021 hPa
Nubes: Muy nuboso
Visibilidad: 10 km
Detalle Nubes: Nubes dispersas 914 m
Parcialmente nuboso 1372 m
Muy nuboso 1829 m
2017/09/26 18:00 LEGE 261800Z 00000KT 9999 FEW030TCU SCT045 BKN060 19/14 Q1021
LFMP - Perpignan/Rivesa, France
Distancia a la estación: NNE 155km
Actualizado: 26/09/2017 20:00
Nubes dispersas
Nubes dispersas
 Viento del ONO
Viento: ONO 7 km/h
Temperatura: 20°C
Rocío: 10°C
Humedad: 53%
Barómetro: 1021 hPa
Nubes: Nubes dispersas
Visibilidad: 10 km
Detalle Nubes: Nubes dispersas 2134 m
2017/09/26 18:00 LFMP 261800Z AUTO 30004KT 9999 FEW070 20/10 Q1021 NOSIG
LFMK - Carcassonne/Salv, France
Distancia a la estación: N 191km
Actualizado: 26/09/2017 20:00
Despejado
Despejado
 Viento del ONO
Viento: ONO 6 km/h
Temperatura: 17°C
Rocío: 8°C
Humedad: 56%
Barómetro: 1021 hPa
Resumen: Despejado
Visibilidad: greater than 10 km
2017/09/26 18:00 LFMK 261800Z AUTO 29003KT CAVOK 17/08 Q1021 NOSIG
 
LEHC - Huesca-Pirineos, Spain
Distancia a la estación: ONO 193km
Actualizado: 26/09/2017 20:00
Despejado
Despejado
 Viento del calm
Viento: Calma
Temperatura: 20°C
Rocío: 11°C
Humedad: 56%
Barómetro: 1020 hPa
Nubes: Despejado
Visibilidad: 10 km
2017/09/26 18:00 LEHC 261800Z AUTO 00000KT 9999 NCD 20/11 Q1020
LFMU - Beziers/Vias, France
Distancia a la estación: NNE 232km
Actualizado: 26/09/2017 20:00
Despejado
Despejado
 Viento del OSO
Viento: OSO 11 km/h
Temperatura: 21°C
Rocío: 8°C
Humedad: 43%
Barómetro: 1020 hPa
Resumen: Despejado
Visibilidad: greater than 10 km
2017/09/26 18:00 LFMU 261800Z AUTO 25006KT CAVOK 21/08 Q1020 TEMPO 17010KT
LEPA - Palma De Mallorc, Spain
Distancia a la estación: SSE 233km
Actualizado: 26/09/2017 20:00
Nubes dispersas
Nubes dispersas
 Viento del ENE
Viento: ENE 13 km/h
Temperatura: 21°C
Rocío: 16°C
Humedad: 73%
Barómetro: 1020 hPa
Nubes: Nubes dispersas
Visibilidad: 10 km
Detalle Nubes: Nubes dispersas 671 m
2017/09/26 18:00 LEPA 261800Z 07007KT 9999 FEW022 21/16 Q1020 NOSIG
 
LFBO - Toulouse/Blagnac, France
Distancia a la estación: N 236km
Actualizado: 26/09/2017 20:00
Despejado
Despejado
 Viento del varies
Viento: varies 6 km/h
Temperatura: 18°C
Rocío: 9°C
Humedad: 56%
Barómetro: 1022 hPa
Resumen: Despejado
Visibilidad: greater than 10 km
2017/09/26 18:00 LFBO 261800Z AUTO VRB03KT CAVOK 18/09 Q1022 NOSIG
LFBT - Tarbes/Ossun, France
Distancia a la estación: NO 239km
Actualizado: 26/09/2017 20:00
Cubierto
Cubierto
 Viento del NE
Viento: NE 6 km/h
Temperatura: 17°C
Rocío: 10°C
Humedad: 64%
Barómetro: 1022 hPa
Nubes: Cubierto
Visibilidad: 10 km
Detalle Nubes: Cubierto 1524 m
2017/09/26 18:00 LFBT 261800Z AUTO 04003KT 9999 OVC050 17/10 Q1022 NOSIG
LEZG - Zaragoza (mil/Ci, Spain
Distancia a la estación: O 242km
Actualizado: 26/09/2017 20:00
Despejado
Despejado
 Viento del OSO
Viento: OSO 4 km/h
Temperatura: 23°C
Rocío: 10°C
Humedad: 44%
Barómetro: 1019 hPa
Resumen: Despejado
Visibilidad: greater than 10 km
2017/09/26 18:00 LEZG 261800Z 24002KT CAVOK 23/10 Q1019